Time;durP1;ratioP1;P1;durP2;ratioP2;P2;SDS_P1;SDS_P2;PMS_P1;PMS_P2;Temp;Humidity;BMP_temperature;BMP_pressure;BME280_temperature;BME280_humidity;BME280_pressure;Samples;Min_cycle;Max_cycle;Signal;HPM_P1;HPM_P2
2022/09/28 00:02:51;;;;;;;12.27;6.25;;;;;;;17.49;100.00;99612.53;10376061;28;20038;-74
2022/09/28 00:07:53;;;;;;;10.70;5.88;;;;;;;17.42;100.00;99621.75;10375751;28;20038;-71
2022/09/28 00:12:56;;;;;;;12.40;6.13;;;;;;;17.38;100.00;99607.13;10376164;28;20088;-71
2022/09/28 00:17:57;;;;;;;10.95;6.47;;;;;;;17.09;100.00;99553.28;10373803;28;20076;-71
2022/09/28 00:22:58;;;;;;;11.30;5.88;;;;;;;17.54;100.00;99622.59;10373989;28;20069;-72
2022/09/28 00:27:59;;;;;;;14.38;7.13;;;;;;;17.45;100.00;99605.19;10374471;28;20041;-71
2022/09/28 00:33:00;;;;;;;13.63;6.57;;;;;;;17.52;100.00;99619.31;10374243;28;20044;-71
2022/09/28 00:38:02;;;;;;;11.85;6.50;;;;;;;17.50;100.00;99613.34;10410785;28;20037;-71
2022/09/28 00:43:19;;;;;;;11.68;6.95;;;;;;;17.55;100.00;99630.41;10415581;28;20041;-72
2022/09/28 00:48:20;;;;;;;9.65;6.45;;;;;;;17.48;100.00;99626.22;10415621;28;20067;-71
2022/09/28 00:53:25;;;;;;;12.05;7.28;;;;;;;17.50;100.00;99657.16;10415767;28;20053;-72
2022/09/28 00:58:31;;;;;;;12.32;7.22;;;;;;;17.45;100.00;99664.25;10413132;28;20037;-71
2022/09/28 01:03:32;;;;;;;11.70;6.65;;;;;;;17.30;100.00;99627.09;10413131;28;20033;-71
2022/09/28 01:08:35;;;;;;;10.27;6.05;;;;;;;17.52;100.00;99664.97;10413956;28;20052;-71
2022/09/28 01:13:36;;;;;;;11.55;6.32;;;;;;;17.50;100.00;99634.81;10414467;28;20056;-71
2022/09/28 01:18:43;;;;;;;12.88;6.13;;;;;;;17.04;100.00;99563.91;10414699;28;20034;-71
2022/09/28 01:24:08;;;;;;;10.10;6.07;;;;;;;17.48;100.00;99631.56;10413400;28;20556;-71
2022/09/28 01:29:33;;;;;;;11.38;6.30;;;;;;;17.42;100.00;99594.91;10413430;28;20138;-71
2022/09/28 01:34:44;;;;;;;10.75;6.18;;;;;;;17.48;100.00;99596.66;10414634;28;20569;-72
2022/09/28 01:39:49;;;;;;;11.25;6.63;;;;;;;17.41;100.00;99598.63;10414299;28;20046;-71
2022/09/28 01:44:52;;;;;;;12.00;7.22;;;;;;;17.31;100.00;99567.78;10413252;28;20045;-71
2022/09/28 01:50:06;;;;;;;10.20;6.80;;;;;;;17.39;100.00;99568.53;10413140;28;20417;-72
2022/09/28 01:55:12;;;;;;;11.15;6.82;;;;;;;16.86;100.00;99492.34;10413054;28;20134;-71
2022/09/28 02:00:15;;;;;;;14.52;7.32;;;;;;;17.37;100.00;99565.25;10412478;28;20053;-71
2022/09/28 02:05:27;;;;;;;11.60;6.75;;;;;;;17.42;100.00;99566.19;10413039;28;20493;-71
2022/09/28 02:11:00;;;;;;;16.65;7.93;;;;;;;17.45;100.00;99562.22;10412984;28;20056;-71
2022/09/28 02:16:09;;;;;;;12.53;6.93;;;;;;;16.89;100.00;99470.41;10419933;28;20042;-71
2022/09/28 02:21:19;;;;;;;11.05;6.47;;;;;;;17.34;100.00;99551.22;10420276;28;20651;-71
2022/09/28 02:26:23;;;;;;;15.43;8.00;;;;;;;17.11;100.00;99500.19;10421419;28;20132;-71
2022/09/28 02:31:26;;;;;;;14.05;7.95;;;;;;;17.20;100.00;99539.09;10420460;28;20107;-68
2022/09/28 02:36:28;;;;;;;14.10;8.10;;;;;;;16.88;100.00;99480.34;10407645;28;20044;-71
2022/09/28 02:41:52;;;;;;;19.70;8.20;;;;;;;17.22;100.00;99526.25;10400376;28;20169;-71
2022/09/28 02:47:07;;;;;;;14.82;8.60;;;;;;;17.07;100.00;99502.53;10379637;28;20498;-71
2022/09/28 02:52:23;;;;;;;21.83;9.35;;;;;;;17.19;100.00;99523.22;10378929;28;20524;-71
2022/09/28 02:57:42;;;;;;;14.65;8.93;;;;;;;16.80;100.00;99463.75;10378442;28;20053;-71
2022/09/28 03:02:58;;;;;;;11.77;8.38;;;;;;;17.20;100.00;99523.00;10399273;28;20079;-72
2022/09/28 03:08:24;;;;;;;19.63;9.93;;;;;;;17.32;100.00;99542.59;10398219;28;20078;-71
2022/09/28 03:13:27;;;;;;;15.18;8.77;;;;;;;17.11;100.00;99535.06;10394333;28;20496;-73
2022/09/28 03:18:27;;;;;;;16.40;9.25;;;;;;;16.81;100.00;99486.84;10418276;28;20041;-71
2022/09/28 03:23:28;;;;;;;15.43;8.70;;;;;;;16.82;100.00;99515.31;10417310;28;20041;-70
2022/09/28 03:28:29;;;;;;;14.20;8.52;;;;;;;17.30;100.00;99594.88;10418797;28;20125;-71
2022/09/28 03:33:30;;;;;;;16.65;8.07;;;;;;;16.84;100.00;99492.59;10419158;28;20041;-72
2022/09/28 03:38:31;;;;;;;16.65;8.88;;;;;;;17.15;100.00;99581.91;10398573;28;20087;-70
2022/09/28 03:43:32;;;;;;;15.52;8.23;;;;;;;17.26;100.00;99618.69;10410861;28;20057;-70
2022/09/28 03:48:34;;;;;;;15.18;9.20;;;;;;;17.23;100.00;99612.94;10388868;28;20049;-69
2022/09/28 03:53:36;;;;;;;14.15;9.05;;;;;;;17.13;100.00;99602.75;10375705;28;20060;-70
2022/09/28 03:58:37;;;;;;;12.80;8.77;;;;;;;16.78;100.00;99535.56;10375973;28;20041;-69
2022/09/28 04:03:38;;;;;;;19.23;10.10;;;;;;;17.20;100.00;99598.13;10375599;28;20133;-71
2022/09/28 04:08:39;;;;;;;14.55;8.98;;;;;;;17.30;100.00;99614.50;10375155;28;20100;-71
2022/09/28 04:13:39;;;;;;;15.55;9.45;;;;;;;17.35;100.00;99597.72;10388857;28;20040;-71
2022/09/28 04:18:41;;;;;;;16.17;9.45;;;;;;;17.52;100.00;99593.28;10374905;28;20516;-69
2022/09/28 04:23:43;;;;;;;16.55;8.43;;;;;;;17.07;100.00;99493.66;10375164;28;20453;-71
2022/09/28 04:34:21;;;;;;;12.27;8.73;;;;;;;17.77;100.00;99592.25;10371923;28;20046;-71
2022/09/28 04:39:21;;;;;;;11.98;8.13;;;;;;;17.43;100.00;99532.09;10374008;28;20052;-70
2022/09/28 04:44:22;;;;;;;13.07;9.10;;;;;;;17.83;100.00;99598.56;10368398;28;20057;-69
2022/09/28 04:49:23;;;;;;;13.32;8.32;;;;;;;17.88;100.00;99599.50;10373691;28;20069;-71
2022/09/28 04:54:24;;;;;;;12.73;7.95;;;;;;;17.96;100.00;99587.59;10376874;28;20081;-71
2022/09/28 04:59:25;;;;;;;16.67;7.47;;;;;;;18.07;100.00;99573.34;10372648;28;20068;-71
2022/09/28 05:04:27;;;;;;;25.23;7.28;;;;;;;18.13;100.00;99552.78;10373663;28;20042;-71
2022/09/28 05:09:27;;;;;;;10.73;7.80;;;;;;;17.87;100.00;99503.03;10374202;28;20088;-71
2022/09/28 05:14:28;;;;;;;14.50;8.30;;;;;;;18.15;100.00;99548.78;10373945;28;20100;-71
2022/09/28 05:19:29;;;;;;;13.90;7.65;;;;;;;18.34;100.00;99564.78;10373348;28;20092;-71
2022/09/28 05:24:30;;;;;;;18.88;8.82;;;;;;;18.39;100.00;99554.91;10373245;28;20041;-70
2022/09/28 05:29:31;;;;;;;12.63;6.55;;;;;;;18.37;100.00;99558.91;10372505;28;20073;-71
2022/09/28 05:34:32;;;;;;;13.00;6.88;;;;;;;18.48;100.00;99571.50;10372796;28;20038;-71
2022/09/28 05:39:33;;;;;;;12.65;7.40;;;;;;;17.93;100.00;99484.09;10372697;28;20397;-71
2022/09/28 05:44:34;;;;;;;16.75;7.47;;;;;;;18.24;100.00;99498.97;10372632;28;20050;-71
2022/09/28 05:49:35;;;;;;;15.05;7.03;;;;;;;18.73;100.00;99530.03;10372404;28;20490;-71
2022/09/28 05:54:35;;;;;;;12.15;7.13;;;;;;;19.05;100.00;99560.75;10370779;28;20049;-71
2022/09/28 05:59:36;;;;;;;16.65;8.10;;;;;;;18.97;99.92;99536.94;10372482;28;20128;-70
2022/09/28 06:04:37;;;;;;;11.45;7.00;;;;;;;19.40;98.32;99557.03;10372293;28;20042;-71
2022/09/28 06:09:38;;;;;;;12.25;7.15;;;;;;;19.06;96.57;99457.41;10371641;28;20418;-71
2022/09/28 06:14:39;;;;;;;40.60;7.47;;;;;;;19.82;95.78;99562.00;10371332;28;20046;-71
2022/09/28 06:19:39;;;;;;;11.95;6.30;;;;;;;19.74;95.52;99555.16;10372305;28;20042;-72
2022/09/28 06:24:40;;;;;;;14.27;6.45;;;;;;;19.74;95.27;99557.88;10370722;28;20425;-71
2022/09/28 06:29:41;;;;;;;14.13;6.07;;;;;;;19.71;94.23;99535.97;10371233;28;20046;-72
2022/09/28 06:34:42;;;;;;;8.95;5.78;;;;;;;19.79;93.92;99554.41;10371777;28;20044;-72
2022/09/28 06:39:42;;;;;;;10.65;6.13;;;;;;;19.69;93.07;99527.34;10371324;28;20421;-72
2022/09/28 06:44:45;;;;;;;11.50;5.85;;;;;;;20.10;90.44;99501.72;10371529;28;20038;-72
2022/09/28 06:49:47;;;;;;;11.02;5.30;;;;;;;20.87;87.53;99538.47;10370901;28;20065;-72
2022/09/28 06:54:47;;;;;;;32.22;6.65;;;;;;;21.11;86.55;99538.94;10370898;28;20124;-72
2022/09/28 06:59:48;;;;;;;10.60;5.68;;;;;;;20.99;86.03;99530.22;10374699;28;20144;-72
2022/09/28 07:04:49;;;;;;;20.50;6.38;;;;;;;20.90;85.78;99526.34;10378475;28;20065;-73
2022/09/28 07:09:54;;;;;;;8.80;5.05;;;;;;;20.96;84.37;99530.72;10377578;28;20049;-72
2022/09/28 07:14:56;;;;;;;8.60;4.72;;;;;;;20.90;84.28;99483.16;10377564;28;20057;-72
2022/09/28 07:19:57;;;;;;;9.77;4.78;;;;;;;21.07;83.22;99486.53;10377897;28;20044;-73
2022/09/28 07:24:58;;;;;;;9.32;4.80;;;;;;;21.28;81.81;99492.09;10377396;28;20037;-73
2022/09/28 07:29:59;;;;;;;10.25;5.18;;;;;;;21.92;80.89;99527.13;10376886;28;20045;-72
2022/09/28 07:35:03;;;;;;;8.45;4.65;;;;;;;22.01;79.06;99530.13;10377322;28;20037;-72
2022/09/28 07:45:28;;;;;;;10.40;4.25;;;;;;;22.19;77.56;99493.72;10376998;28;20743;-72
2022/09/28 07:50:30;;;;;;;12.00;4.22;;;;;;;21.41;77.05;99384.41;10376360;28;20486;-73
2022/09/28 07:55:30;;;;;;;10.60;4.43;;;;;;;22.04;76.83;99421.44;10376908;28;20498;-73
2022/09/28 08:00:32;;;;;;;9.43;4.13;;;;;;;22.37;75.46;99457.25;10375676;28;20046;-73
2022/09/28 08:05:34;;;;;;;10.02;4.05;;;;;;;22.54;74.08;99433.47;10376089;28;20132;-72
2022/09/28 08:10:36;;;;;;;10.40;4.45;;;;;;;23.15;71.55;99446.22;10375110;28;20047;-73
2022/09/28 08:15:37;;;;;;;12.40;4.63;;;;;;;23.23;70.90;99453.81;10375522;28;20042;-72
2022/09/28 08:25:57;;;;;;;13.95;5.30;;;;;;;23.92;68.51;99450.38;10375314;28;20038;-72
2022/09/28 08:31:02;;;;;;;12.88;4.88;;;;;;;24.05;67.36;99459.00;10374561;28;20050;-71
2022/09/28 08:36:04;;;;;;;15.00;5.85;;;;;;;24.48;66.79;99451.22;10374384;28;20044;-72
2022/09/28 08:41:58;;;;;;;9.07;5.00;;;;;;;24.50;64.45;99444.41;10373686;28;20452;-72
2022/09/28 08:47:04;;;;;;;11.30;5.20;;;;;;;24.08;65.67;99440.28;10371634;28;20057;-72
2022/09/28 08:52:12;;;;;;;13.35;6.13;;;;;;;24.19;64.01;99443.75;10373493;28;20434;-72
2022/09/28 08:57:56;;;;;;;8.32;4.20;;;;;;;24.43;63.60;99451.25;10373672;28;20132;-72
2022/09/28 09:02:58;;;;;;;10.05;3.80;;;;;;;24.17;64.95;99439.69;10369407;28;20065;-72
2022/09/28 09:08:14;;;;;;;8.98;3.78;;;;;;;24.30;63.62;99436.38;10372182;28;20437;-71
2022/09/28 09:13:38;;;;;;;22.13;12.70;;;;;;;24.03;64.20;99364.34;10373067;28;20104;-72
2022/09/28 09:19:19;;;;;;;11.45;6.35;;;;;;;24.24;62.99;99430.16;10373198;28;20045;-72
2022/09/28 09:24:42;;;;;;;8.65;4.20;;;;;;;23.98;63.56;99445.75;10370812;28;20120;-72
2022/09/28 09:30:14;;;;;;;9.30;4.78;;;;;;;23.62;64.08;99396.25;10372601;28;20046;-72
2022/09/28 09:35:58;;;;;;;10.27;4.20;;;;;;;23.74;63.55;99374.28;10372137;28;20085;-72
2022/09/28 09:41:21;;;;;;;9.90;3.92;;;;;;;24.56;63.51;99440.56;10372330;28;20046;-73
2022/09/28 09:46:28;;;;;;;54.83;30.70;;;;;;;24.67;62.21;99416.03;10372583;28;20398;-72
2022/09/28 09:51:53;;;;;;;52.65;24.92;;;;;;;24.68;60.96;99413.06;10372897;28;20065;-72
2022/09/28 09:57:04;;;;;;;22.48;10.88;;;;;;;24.43;62.43;99395.03;10372552;28;20136;-72
2022/09/28 10:02:29;;;;;;;10.87;4.70;;;;;;;24.67;61.41;99399.75;10371661;28;20049;-73
2022/09/28 10:07:45;;;;;;;11.65;5.30;;;;;;;24.74;61.03;99383.94;10372525;28;20042;-72
2022/09/28 10:12:49;;;;;;;16.38;4.25;;;;;;;24.46;60.38;99332.03;10371670;28;20052;-72
2022/09/28 10:17:50;;;;;;;8.20;3.72;;;;;;;24.68;60.84;99363.34;10372224;28;20053;-72
2022/09/28 10:22:51;;;;;;;13.23;5.63;;;;;;;24.97;60.15;99399.47;10372458;28;20120;-72
2022/09/28 10:27:52;;;;;;;7.65;4.05;;;;;;;25.09;59.58;99392.84;10371949;28;20125;-72
2022/09/28 10:32:58;;;;;;;15.80;3.95;;;;;;;25.13;58.39;99397.47;10373611;28;20133;-71
2022/09/28 10:38:07;;;;;;;21.50;5.40;;;;;;;24.98;57.62;99390.25;10379715;28;20418;-71
2022/09/28 10:43:29;;;;;;;27.15;7.47;;;;;;;24.91;57.12;99384.31;10378770;28;20466;-72
2022/09/28 10:48:45;;;;;;;47.07;17.83;;;;;;;24.91;57.55;99386.22;10379315;28;20076;-72
2022/09/28 10:53:59;;;;;;;56.10;31.75;;;;;;;24.77;56.03;99378.75;10379298;28;20376;-70
2022/09/28 10:59:00;;;;;;;22.40;9.00;;;;;;;24.37;57.56;99322.84;10378856;28;20042;-72
2022/09/28 11:04:06;;;;;;;13.82;4.80;;;;;;;24.67;56.82;99369.88;10378895;28;20034;-71
2022/09/28 11:09:29;;;;;;;14.02;4.05;;;;;;;24.93;56.57;99365.84;10378877;28;20045;-71
2022/09/28 11:14:39;;;;;;;26.13;3.93;;;;;;;25.06;56.76;99370.59;10378679;28;20117;-70
2022/09/28 11:19:41;;;;;;;13.68;2.88;;;;;;;25.05;57.09;99360.81;10378314;28;20038;-71
2022/09/28 11:24:41;;;;;;;40.78;3.97;;;;;;;24.98;57.07;99365.78;10377799;28;20042;-72
2022/09/28 11:29:45;;;;;;;12.90;2.88;;;;;;;24.93;57.33;99379.44;10376950;28;20052;-71
2022/09/28 11:34:50;;;;;;;13.40;6.05;;;;;;;24.36;57.39;99297.63;10376958;28;20125;-71
2022/09/28 11:39:50;;;;;;;28.52;3.97;;;;;;;24.75;57.51;99374.72;10377474;28;20034;-71
2022/09/28 11:45:20;;;;;;;11.73;2.40;;;;;;;24.04;56.88;99262.06;10375917;28;20053;-71
2022/09/28 11:50:27;;;;;;;23.05;3.00;;;;;;;24.74;57.72;99356.78;10376725;28;20521;-71
2022/09/28 11:55:46;;;;;;;19.55;3.58;;;;;;;24.89;58.44;99361.25;10376418;28;20108;-69
2022/09/28 12:00:53;;;;;;;39.83;9.02;;;;;;;25.05;56.79;99336.38;10376277;28;20132;-71
2022/09/28 12:06:08;;;;;;;15.07;3.38;;;;;;;25.21;54.85;99341.66;10376479;28;20046;-70
2022/09/28 12:11:34;;;;;;;17.42;2.78;;;;;;;25.62;54.19;99338.47;10376767;28;20081;-70
2022/09/28 12:16:44;;;;;;;10.93;2.45;;;;;;;25.42;55.22;99332.16;10376376;28;20050;-71
2022/09/28 12:21:50;;;;;;;17.05;3.47;;;;;;;25.35;56.00;99361.63;10375877;28;20053;-70
2022/09/28 12:26:58;;;;;;;12.95;2.35;;;;;;;25.26;56.04;99363.34;10375474;28;20038;-71
2022/09/28 12:32:09;;;;;;;9.80;2.63;;;;;;;25.20;54.85;99354.44;10374775;28;20046;-71
2022/09/28 12:37:24;;;;;;;31.45;5.55;;;;;;;24.35;54.66;99241.72;10374525;28;20449;-70
2022/09/28 12:42:41;;;;;;;23.85;3.22;;;;;;;25.20;55.50;99359.06;10374749;28;20045;-71
2022/09/28 12:48:07;;;;;;;10.38;4.07;;;;;;;25.13;55.01;99356.72;10393836;28;20049;-73
2022/09/28 12:53:48;;;;;;;18.30;7.25;;;;;;;25.26;54.45;99364.16;10375140;28;20516;-71
2022/09/28 12:59:20;;;;;;;31.00;8.70;;;;;;;25.16;54.49;99372.44;10339858;28;20136;-72
2022/09/28 13:04:23;;;;;;;126.47;72.13;;;;;;;24.97;55.75;99360.63;10374000;28;20242;-71
2022/09/28 13:09:25;;;;;;;;;;;;;;;25.06;55.52;99353.47;10372604;28;20042;-71
2022/09/28 13:14:49;;;;;;;27.83;8.30;;;;;;;24.83;56.82;99339.59;10373970;28;19917;-71
2022/09/28 13:19:58;;;;;;;15.00;3.78;;;;;;;24.87;56.27;99347.16;10386838;28;20091;-73
2022/09/28 13:25:04;;;;;;;26.13;4.53;;;;;;;24.77;58.34;99356.22;10374088;28;20056;-71
2022/09/28 13:30:06;;;;;;;20.40;2.40;;;;;;;24.57;58.12;99338.19;10385247;28;20111;-71
2022/09/28 13:35:14;;;;;;;27.67;3.28;;;;;;;24.43;57.68;99343.47;10373022;28;20466;-71
2022/09/28 13:40:16;;;;;;;28.20;3.10;;;;;;;24.19;58.90;99347.97;10388043;28;20490;-71
2022/09/28 13:45:19;;;;;;;45.25;10.18;;;;;;;24.10;59.59;99348.56;10379506;28;20044;-71
2022/09/28 13:50:26;;;;;;;;;;;;;;;24.15;58.80;99358.56;10411166;28;20060;-72
2022/09/28 13:55:33;;;;;;;72.93;35.15;;;;;;;24.00;59.13;99367.63;10371006;28;19975;-73
2022/09/28 14:00:44;;;;;;;38.75;15.95;;;;;;;23.36;59.35;99290.66;10378519;28;20125;-72
2022/09/28 14:05:59;;;;;;;310.50;170.35;;;;;;;23.78;59.97;99381.59;10410116;28;20049;-72
2022/09/28 14:11:23;;;;;;;169.80;89.22;;;;;;;23.81;62.05;99404.59;10417854;28;20091;-72
2022/09/28 14:16:32;;;;;;;282.23;174.90;;;;;;;23.71;60.95;99410.88;10383022;28;20559;-72
2022/09/28 14:21:45;;;;;;;101.20;52.80;;;;;;;23.68;61.64;99428.47;10378740;28;20508;-72
2022/09/28 14:27:04;;;;;;;36.95;19.65;;;;;;;23.55;61.92;99434.50;10408703;28;20037;-72
2022/09/28 14:32:08;;;;;;;63.38;21.17;;;;;;;23.33;63.95;99451.06;10420110;28;20060;-72
2022/09/28 14:43:23;;;;;;;154.98;30.70;;;;;;;22.92;68.20;99456.50;10400173;28;20038;-73
2022/09/28 14:49:03;;;;;;;77.80;20.90;;;;;;;22.59;69.24;99454.34;10390050;28;20045;-73
2022/09/28 14:54:08;;;;;;;77.20;16.83;;;;;;;22.40;70.48;99468.34;10404526;28;20041;-74
2022/09/28 14:59:34;;;;;;;75.78;18.80;;;;;;;22.31;72.79;99476.19;10409447;28;20505;-72
2022/09/28 15:04:51;;;;;;;36.83;12.77;;;;;;;21.98;73.00;99468.47;10397698;28;20212;-72
2022/09/28 15:09:54;;;;;;;32.53;10.38;;;;;;;21.86;73.16;99480.31;10379794;28;20140;-72
2022/09/28 15:15:04;;;;;;;39.13;9.00;;;;;;;21.77;74.43;99487.28;10393221;28;20038;-71
2022/09/28 15:20:24;;;;;;;47.92;9.75;;;;;;;21.79;75.63;99503.25;10386383;28;20102;-70
2022/09/28 15:25:31;;;;;;;20.88;7.38;;;;;;;21.62;74.18;99509.63;10391074;28;20076;-72
2022/09/28 15:30:34;;;;;;;21.20;6.72;;;;;;;21.21;74.09;99451.81;10398728;28;20124;-72
2022/09/28 15:35:36;;;;;;;26.75;7.00;;;;;;;21.01;74.35;99414.66;10394179;28;20422;-71
2022/09/28 15:40:38;;;;;;;23.45;6.60;;;;;;;21.34;74.29;99486.47;10393251;28;20034;-72
2022/09/28 15:45:39;;;;;;;27.40;6.60;;;;;;;21.43;73.90;99517.38;10388305;28;20045;-72
2022/09/28 15:50:55;;;;;;;21.50;5.85;;;;;;;21.32;74.31;99514.81;10392432;28;20126;-71
2022/09/28 15:56:02;;;;;;;24.85;7.28;;;;;;;20.90;75.53;99451.56;10387935;28;20060;-71
2022/09/28 16:01:24;;;;;;;60.97;20.08;;;;;;;20.75;77.14;99424.44;10394173;28;20132;-71
2022/09/28 16:06:25;;;;;;;67.90;16.98;;;;;;;21.26;74.65;99530.16;10416907;28;20125;-71
2022/09/28 16:11:36;;;;;;;34.42;9.43;;;;;;;21.02;76.40;99512.69;10399117;28;20128;-71
2022/09/28 16:16:48;;;;;;;31.58;8.05;;;;;;;20.95;77.48;99515.59;10376101;28;20038;-71
2022/09/28 16:21:51;;;;;;;28.33;7.85;;;;;;;20.89;77.37;99519.31;10373955;28;20045;-71
2022/09/28 16:27:02;;;;;;;47.47;15.98;;;;;;;20.94;77.18;99538.28;10373580;28;20382;-71
2022/09/28 16:32:25;;;;;;;39.45;10.30;;;;;;;20.91;78.13;99560.38;10377476;28;20046;-70
2022/09/28 16:37:30;;;;;;;38.43;12.80;;;;;;;20.65;79.86;99576.31;10406299;28;20053;-72
2022/09/28 16:42:31;;;;;;;41.30;11.80;;;;;;;20.64;78.53;99587.34;10394237;28;20042;-70
2022/09/28 16:47:33;;;;;;;25.98;7.40;;;;;;;20.60;78.99;99597.81;10377258;28;20038;-73
2022/09/28 16:57:54;;;;;;;29.83;6.95;;;;;;;20.46;79.94;99618.13;10374348;28;20076;-71
2022/09/28 17:02:56;;;;;;;24.30;6.93;;;;;;;20.43;80.61;99621.31;10373834;28;20080;-76
2022/09/28 17:08:00;;;;;;;17.27;6.85;;;;;;;20.40;80.92;99605.63;10372234;28;20107;-75
2022/09/28 17:13:02;;;;;;;35.63;9.30;;;;;;;20.35;80.93;99611.81;10383178;28;20170;-74
2022/09/28 17:18:03;;;;;;;33.85;8.98;;;;;;;20.08;81.28;99590.13;10377632;28;20092;-75
2022/09/28 17:23:04;;;;;;;25.55;7.93;;;;;;;20.19;82.46;99613.47;10388790;28;20046;-73
2022/09/28 17:28:05;;;;;;;24.73;8.40;;;;;;;19.67;83.28;99538.34;10380257;28;20417;-76
2022/09/28 17:33:07;;;;;;;32.95;11.40;;;;;;;20.01;84.80;99629.91;10394398;28;20640;-71
2022/09/28 17:38:12;;;;;;;23.15;9.43;;;;;;;19.69;86.06;99567.75;10377217;28;20457;-74
2022/09/28 17:43:13;;;;;;;31.50;13.77;;;;;;;19.81;84.80;99582.75;10391083;28;20116;-76
2022/09/28 17:48:17;;;;;;;43.38;17.13;;;;;;;19.72;85.60;99588.81;10397580;28;20132;-75
2022/09/28 17:53:18;;;;;;;43.53;16.98;;;;;;;19.40;85.54;99535.47;10382019;28;20064;-75
2022/09/28 17:58:21;;;;;;;41.45;15.27;;;;;;;19.69;85.96;99625.16;10372976;28;20045;-74
2022/09/28 18:03:24;;;;;;;30.98;13.45;;;;;;;19.60;85.63;99630.09;10371582;28;20038;-73
2022/09/28 18:08:25;;;;;;;42.78;15.52;;;;;;;19.16;85.96;99545.59;10381194;28;20045;-73
2022/09/28 18:13:26;;;;;;;43.60;19.10;;;;;;;19.52;86.26;99576.59;10376321;28;20509;-74
2022/09/28 18:18:27;;;;;;;88.35;40.95;;;;;;;19.06;86.81;99557.00;10382339;28;20049;-74
2022/09/28 18:23:27;;;;;;;45.67;17.95;;;;;;;19.49;86.43;99606.72;10376862;28;20041;-73
2022/09/28 18:28:28;;;;;;;54.60;23.10;;;;;;;19.55;87.21;99623.78;10380394;28;20494;-75
2022/09/28 18:33:29;;;;;;;40.13;16.10;;;;;;;19.47;87.44;99637.66;10373147;28;20041;-76
2022/09/28 18:38:30;;;;;;;31.65;12.10;;;;;;;19.07;87.16;99582.88;10390827;28;20069;-74
2022/09/28 18:43:31;;;;;;;34.13;10.75;;;;;;;18.93;87.20;99605.75;10389233;28;20047;-73
2022/09/28 18:48:31;;;;;;;24.27;8.50;;;;;;;19.51;86.79;99680.03;10389867;28;20046;-74
2022/09/28 18:53:44;;;;;;;26.25;7.43;;;;;;;19.20;86.61;99607.84;10389718;28;20060;-73
2022/09/28 18:58:46;;;;;;;20.83;6.40;;;;;;;19.48;86.68;99593.53;10393791;28;20045;-75
2022/09/28 19:03:47;;;;;;;27.77;6.80;;;;;;;19.53;86.36;99604.34;10395496;28;20073;-73
2022/09/28 19:08:54;;;;;;;98.60;52.67;;;;;;;19.60;86.93;99578.91;10401332;28;20076;-73
2022/09/28 19:13:55;;;;;;;28.15;14.05;;;;;;;19.51;86.06;99566.91;10391197;28;20484;-72
2022/09/28 19:18:57;;;;;;;38.28;12.15;;;;;;;19.53;86.50;99621.38;10383099;28;20161;-75
2022/09/28 19:24:02;;;;;;;23.92;9.60;;;;;;;19.65;87.23;99666.28;10378188;28;20044;-73
2022/09/28 19:29:03;;;;;;;19.02;9.52;;;;;;;19.50;86.21;99632.59;10377543;28;20042;-73
2022/09/28 19:34:04;;;;;;;24.92;9.60;;;;;;;19.62;86.02;99710.66;10388139;28;20042;-73
2022/09/28 19:39:06;;;;;;;17.00;7.15;;;;;;;19.67;86.05;99731.53;10377303;28;20490;-72
2022/09/28 19:44:10;;;;;;;15.77;6.13;;;;;;;19.64;85.75;99742.75;10377224;28;20129;-73
2022/09/28 19:49:18;;;;;;;18.85;5.68;;;;;;;19.73;85.57;99738.63;10376867;28;20062;-72
2022/09/28 19:54:21;;;;;;;14.57;5.00;;;;;;;19.95;84.20;99736.88;10377733;28;20042;-72
2022/09/28 19:59:22;;;;;;;14.18;4.10;;;;;;;19.70;83.50;99664.50;10376125;28;20125;-72
2022/09/28 20:04:22;;;;;;;15.15;3.85;;;;;;;20.09;83.21;99679.91;10375634;28;20069;-72
2022/09/28 20:09:23;;;;;;;19.25;4.75;;;;;;;20.10;83.00;99652.69;10374230;28;20058;-73
2022/09/28 20:14:24;;;;;;;33.00;6.18;;;;;;;19.72;83.94;99580.72;10375924;28;20084;-73
2022/09/28 20:19:25;;;;;;;13.98;4.13;;;;;;;19.71;85.22;99606.03;10375120;28;20049;-71
2022/09/28 20:24:27;;;;;;;22.15;6.00;;;;;;;19.57;84.85;99605.53;10374955;28;20038;-72
2022/09/28 20:29:30;;;;;;;60.95;28.27;;;;;;;19.81;85.07;99641.22;10375410;28;20074;-72
2022/09/28 20:34:32;;;;;;;24.67;8.90;;;;;;;19.69;85.43;99595.50;10375584;28;20502;-73
2022/09/28 20:39:33;;;;;;;18.00;6.25;;;;;;;19.66;86.43;99616.75;10374874;28;20044;-72
2022/09/28 20:44:34;;;;;;;16.52;5.53;;;;;;;19.65;87.32;99617.78;10375323;28;20137;-73
2022/09/28 20:49:35;;;;;;;16.33;6.45;;;;;;;19.64;87.51;99632.28;10374558;28;20568;-73
2022/09/28 20:54:36;;;;;;;16.77;5.60;;;;;;;19.06;88.16;99546.25;10374513;28;20038;-73
2022/09/28 20:59:37;;;;;;;12.52;5.30;;;;;;;19.48;88.42;99597.03;10372901;28;20053;-73
2022/09/28 21:04:40;;;;;;;16.38;5.93;;;;;;;19.38;88.51;99592.28;10384671;28;20103;-72
2022/09/28 21:09:40;;;;;;;20.80;6.03;;;;;;;19.40;89.18;99600.13;10373754;28;20141;-73
2022/09/28 21:14:41;;;;;;;13.55;5.38;;;;;;;19.21;89.36;99612.19;10371962;28;20561;-73
2022/09/28 21:19:42;;;;;;;11.82;4.82;;;;;;;19.44;89.65;99663.19;10373128;28;20070;-73
2022/09/28 21:24:43;;;;;;;14.80;5.28;;;;;;;18.61;89.86;99563.16;10373983;28;20038;-72
2022/09/28 21:29:43;;;;;;;11.27;5.18;;;;;;;19.06;90.17;99658.50;10372577;28;20211;-72
2022/09/28 21:34:44;;;;;;;13.90;4.10;;;;;;;19.27;90.19;99681.22;10373167;28;20077;-73
2022/09/28 21:39:45;;;;;;;13.98;3.90;;;;;;;19.15;89.93;99665.13;10372302;28;20049;-73
2022/09/28 21:44:46;;;;;;;15.32;3.55;;;;;;;19.29;89.39;99682.59;10390309;28;20052;-72
2022/09/28 21:49:46;;;;;;;12.63;3.70;;;;;;;19.02;89.51;99641.97;10400509;28;20057;-73
2022/09/28 21:54:47;;;;;;;13.27;3.70;;;;;;;19.19;90.22;99681.59;10373167;28;20049;-73
2022/09/28 21:59:48;;;;;;;10.50;2.90;;;;;;;18.84;90.16;99626.84;10387622;28;20053;-73
2022/09/28 22:04:49;;;;;;;9.18;3.33;;;;;;;19.27;90.18;99692.00;10412829;28;20041;-72
2022/09/28 22:09:50;;;;;;;9.23;3.00;;;;;;;19.25;90.42;99716.47;10412359;28;20053;-72
2022/09/28 22:14:51;;;;;;;10.38;3.17;;;;;;;19.13;91.06;99711.13;10413623;28;20493;-72
2022/09/28 22:19:52;;;;;;;15.25;3.40;;;;;;;18.95;91.62;99684.38;10385513;28;20050;-73
2022/09/28 22:24:53;;;;;;;10.25;4.88;;;;;;;18.88;91.69;99656.81;10372399;28;20073;-72
2022/09/28 22:29:54;;;;;;;12.90;4.05;;;;;;;18.80;92.22;99657.16;10375403;28;20056;-72
2022/09/28 22:34:55;;;;;;;11.23;4.45;;;;;;;18.32;92.69;99593.75;10380361;28;20136;-73
2022/09/28 22:39:56;;;;;;;16.10;4.53;;;;;;;18.94;92.86;99696.22;10379750;28;20061;-72
2022/09/28 22:44:56;;;;;;;9.55;4.00;;;;;;;18.79;92.98;99675.19;10378141;28;20069;-72
2022/09/28 22:49:57;;;;;;;16.48;6.50;;;;;;;18.82;93.91;99660.44;10379123;28;20057;-72
2022/09/28 22:54:58;;;;;;;20.80;8.55;;;;;;;18.41;94.03;99628.09;10378970;28;20085;-72
2022/09/28 22:59:59;;;;;;;16.85;6.88;;;;;;;18.88;94.70;99694.47;10379514;28;20103;-72
2022/09/28 23:05:00;;;;;;;13.57;5.60;;;;;;;18.45;95.57;99652.66;10380006;28;20096;-74
2022/09/28 23:10:00;;;;;;;10.93;4.68;;;;;;;18.71;95.72;99697.84;10378210;28;20124;-72
2022/09/28 23:15:01;;;;;;;18.75;5.03;;;;;;;18.74;95.86;99698.47;10392097;28;20044;-72
2022/09/28 23:20:03;;;;;;;18.15;4.68;;;;;;;18.77;96.02;99698.00;10388409;28;20045;-72
2022/09/28 23:25:04;;;;;;;16.40;4.63;;;;;;;18.70;95.63;99681.97;10419026;28;20068;-73
2022/09/28 23:30:05;;;;;;;19.27;5.35;;;;;;;18.80;95.76;99721.75;10418828;28;20053;-72
2022/09/28 23:35:07;;;;;;;13.48;4.57;;;;;;;18.79;95.71;99729.00;10386992;28;20041;-72
2022/09/28 23:40:08;;;;;;;12.80;4.60;;;;;;;18.73;96.05;99723.72;10376323;28;20410;-72
2022/09/28 23:45:09;;;;;;;13.07;4.95;;;;;;;18.47;96.06;99685.50;10377420;28;20402;-72
2022/09/28 23:50:10;;;;;;;15.30;5.07;;;;;;;18.38;96.28;99684.22;10380511;28;20064;-72